sensor_id;sensor_type;location;lat;lon;timestamp;pressure;altitude;pressure_sealevel;temperature;humidity
52745;BME280;38637;49.984;20.426;2023-03-23T00:00:36;98861.22;;;10.29;73.05
52745;BME280;38637;49.984;20.426;2023-03-23T00:03:01;98884.13;;;10.43;73.02
52745;BME280;38637;49.984;20.426;2023-03-23T00:05:26;98875.41;;;10.46;72.93
52745;BME280;38637;49.984;20.426;2023-03-23T00:07:54;98877.59;;;10.49;72.80
52745;BME280;38637;49.984;20.426;2023-03-23T00:10:20;98873.50;;;10.52;72.94
52745;BME280;38637;49.984;20.426;2023-03-23T00:12:45;98866.41;;;10.51;72.77
52745;BME280;38637;49.984;20.426;2023-03-23T00:15:15;98875.97;;;10.53;72.48
52745;BME280;38637;49.984;20.426;2023-03-23T00:17:42;98866.94;;;10.58;72.37
52745;BME280;38637;49.984;20.426;2023-03-23T00:20:09;98865.31;;;10.57;72.25
52745;BME280;38637;49.984;20.426;2023-03-23T00:22:37;98869.41;;;10.60;72.27
52745;BME280;38637;49.984;20.426;2023-03-23T00:25:05;98863.41;;;10.57;72.47
52745;BME280;38637;49.984;20.426;2023-03-23T00:27:30;98867.78;;;10.64;72.11
52745;BME280;38637;49.984;20.426;2023-03-23T00:29:55;98863.66;;;10.66;71.96
52745;BME280;38637;49.984;20.426;2023-03-23T00:32:23;98861.50;;;10.68;71.94
52745;BME280;38637;49.984;20.426;2023-03-23T00:34:55;98866.41;;;10.71;72.11
52745;BME280;38637;49.984;20.426;2023-03-23T00:37:23;98857.38;;;10.76;71.48
52745;BME280;38637;49.984;20.426;2023-03-23T00:39:49;98859.84;;;10.77;71.78
52745;BME280;38637;49.984;20.426;2023-03-23T00:42:16;98855.72;;;10.80;71.66
52745;BME280;38637;49.984;20.426;2023-03-23T00:44:42;98857.09;;;10.82;71.35
52745;BME280;38637;49.984;20.426;2023-03-23T00:47:09;98846.97;;;10.83;71.10
52745;BME280;38637;49.984;20.426;2023-03-23T00:49:36;98842.63;;;10.87;70.99
52745;BME280;38637;49.984;20.426;2023-03-23T00:52:03;98837.69;;;10.89;71.24
52745;BME280;38637;49.984;20.426;2023-03-23T00:54:28;98847.78;;;10.94;71.00
52745;BME280;38637;49.984;20.426;2023-03-23T00:56:54;98834.94;;;10.89;70.64
52745;BME280;38637;49.984;20.426;2023-03-23T00:59:20;98842.03;;;11.00;70.38
52745;BME280;38637;49.984;20.426;2023-03-23T01:01:46;98845.84;;;11.04;70.43
52745;BME280;38637;49.984;20.426;2023-03-23T01:04:12;98834.09;;;11.09;70.05
52745;BME280;38637;49.984;20.426;2023-03-23T01:06:39;98835.19;;;11.08;70.17
52745;BME280;38637;49.984;20.426;2023-03-23T01:09:13;98824.78;;;11.10;70.11
52745;BME280;38637;49.984;20.426;2023-03-23T01:11:45;98829.44;;;11.15;69.98
52745;BME280;38637;49.984;20.426;2023-03-23T01:14:12;98831.59;;;11.18;69.83
52745;BME280;38637;49.984;20.426;2023-03-23T01:16:38;98831.31;;;11.19;69.80
52745;BME280;38637;49.984;20.426;2023-03-23T01:19:03;98826.66;;;11.20;69.79
52745;BME280;38637;49.984;20.426;2023-03-23T01:21:29;98803.22;;;11.09;69.37
52745;BME280;38637;49.984;20.426;2023-03-23T01:23:54;98823.41;;;11.18;69.54
52745;BME280;38637;49.984;20.426;2023-03-23T01:26:22;98826.69;;;11.15;69.68
52745;BME280;38637;49.984;20.426;2023-03-23T01:28:48;98827.25;;;11.12;69.92
52745;BME280;38637;49.984;20.426;2023-03-23T01:31:16;98834.09;;;11.09;69.79
52745;BME280;38637;49.984;20.426;2023-03-23T01:33:43;98822.34;;;11.09;69.61
52745;BME280;38637;49.984;20.426;2023-03-23T01:36:15;98824.53;;;11.12;69.78
52745;BME280;38637;49.984;20.426;2023-03-23T01:38:45;98819.31;;;11.10;69.79
52745;BME280;38637;49.984;20.426;2023-03-23T01:41:12;98825.03;;;11.14;69.80
52745;BME280;38637;49.984;20.426;2023-03-23T01:43:54;98820.69;;;11.13;69.45
52745;BME280;38637;49.984;20.426;2023-03-23T01:46:19;98821.50;;;11.13;69.76
52745;BME280;38637;49.984;20.426;2023-03-23T01:48:48;98825.88;;;11.14;69.68
52745;BME280;38637;49.984;20.426;2023-03-23T01:51:16;98817.38;;;11.16;69.33
52745;BME280;38637;49.984;20.426;2023-03-23T01:53:47;98823.91;;;11.20;69.53
52745;BME280;38637;49.984;20.426;2023-03-23T01:56:16;98820.38;;;11.24;69.37
52745;BME280;38637;49.984;20.426;2023-03-23T01:58:45;98823.34;;;11.28;68.95
52745;BME280;38637;49.984;20.426;2023-03-23T02:01:13;98819.50;;;11.29;68.79
52745;BME280;38637;49.984;20.426;2023-03-23T02:03:42;98808.56;;;11.29;68.88
52745;BME280;38637;49.984;20.426;2023-03-23T02:06:08;98816.47;;;11.41;68.81
52745;BME280;38637;49.984;20.426;2023-03-23T02:08:35;98809.63;;;11.43;68.68
52745;BME280;38637;49.984;20.426;2023-03-23T02:11:00;98815.34;;;11.47;68.37
52745;BME280;38637;49.984;20.426;2023-03-23T02:13:27;98815.88;;;11.49;68.30
52745;BME280;38637;49.984;20.426;2023-03-23T02:21:19;98821.34;;;11.54;68.11
52745;BME280;38637;49.984;20.426;2023-03-23T02:24:02;98826.81;;;11.54;68.12
52745;BME280;38637;49.984;20.426;2023-03-23T02:29:14;98833.34;;;11.58;67.71
52745;BME280;38637;49.984;20.426;2023-03-23T02:34:53;98839.06;;;11.62;67.72
52745;BME280;38637;49.984;20.426;2023-03-23T02:37:27;98829.22;;;11.61;67.56
52745;BME280;38637;49.984;20.426;2023-03-23T02:39:59;98838.50;;;11.60;67.84
52745;BME280;38637;49.984;20.426;2023-03-23T02:42:33;98839.63;;;11.59;67.69
52745;BME280;38637;49.984;20.426;2023-03-23T02:45:03;98832.53;;;11.53;68.07
52745;BME280;38637;49.984;20.426;2023-03-23T02:47:31;98839.38;;;11.50;67.92
52745;BME280;38637;49.984;20.426;2023-03-23T02:49:59;98833.66;;;11.46;67.70
52745;BME280;38637;49.984;20.426;2023-03-23T02:52:29;98841.31;;;11.44;67.60
52745;BME280;38637;49.984;20.426;2023-03-23T02:54:57;98843.78;;;11.41;67.71
52745;BME280;38637;49.984;20.426;2023-03-23T02:57:25;98828.28;;;11.26;67.78
52745;BME280;38637;49.984;20.426;2023-03-23T02:59:51;98842.75;;;11.32;67.90
52745;BME280;38637;49.984;20.426;2023-03-23T03:02:28;98850.97;;;11.26;68.27
52745;BME280;38637;49.984;20.426;2023-03-23T03:08:02;98844.72;;;11.16;68.67
52745;BME280;38637;49.984;20.426;2023-03-23T03:10:37;98845.56;;;11.11;68.57
52745;BME280;38637;49.984;20.426;2023-03-23T03:15:49;98848.31;;;11.01;68.84
52745;BME280;38637;49.984;20.426;2023-03-23T03:18:22;98842.59;;;10.97;69.16
52745;BME280;38637;49.984;20.426;2023-03-23T03:20:53;98842.59;;;10.92;69.15
52745;BME280;38637;49.984;20.426;2023-03-23T03:23:21;98840.69;;;10.88;69.31
52745;BME280;38637;49.984;20.426;2023-03-23T03:25:48;98826.78;;;10.84;69.89
52745;BME280;38637;49.984;20.426;2023-03-23T03:28:17;98837.16;;;10.82;69.94
52745;BME280;38637;49.984;20.426;2023-03-23T03:30:47;98828.69;;;10.78;69.81
52745;BME280;38637;49.984;20.426;2023-03-23T03:33:14;98825.97;;;10.78;70.29
52745;BME280;38637;49.984;20.426;2023-03-23T03:35:41;98823.50;;;10.77;69.98
52745;BME280;38637;49.984;20.426;2023-03-23T03:38:09;98825.41;;;10.76;70.31
52745;BME280;38637;49.984;20.426;2023-03-23T03:40:35;98824.59;;;10.76;70.08
52745;BME280;38637;49.984;20.426;2023-03-23T03:43:01;98834.72;;;10.75;70.14
52745;BME280;38637;49.984;20.426;2023-03-23T03:45:26;98822.44;;;10.73;70.33
52745;BME280;38637;49.984;20.426;2023-03-23T03:47:52;98829.81;;;10.67;70.47
52745;BME280;38637;49.984;20.426;2023-03-23T03:50:17;98820.25;;;10.65;70.54
52745;BME280;38637;49.984;20.426;2023-03-23T03:52:42;98829.00;;;10.62;70.68
52745;BME280;38637;49.984;20.426;2023-03-23T03:55:10;98829.00;;;10.56;70.74
52745;BME280;38637;49.984;20.426;2023-03-23T03:57:36;98815.38;;;10.51;71.01
52745;BME280;38637;49.984;20.426;2023-03-23T04:00:04;98809.63;;;10.38;71.21
52745;BME280;38637;49.984;20.426;2023-03-23T04:02:43;98823.03;;;10.44;71.29
52745;BME280;38637;49.984;20.426;2023-03-23T04:05:09;98825.19;;;10.42;71.29
52745;BME280;38637;49.984;20.426;2023-03-23T04:07:36;98815.09;;;10.38;71.82
52745;BME280;38637;49.984;20.426;2023-03-23T04:10:04;98824.91;;;10.33;71.51
52745;BME280;38637;49.984;20.426;2023-03-23T04:12:30;98827.38;;;10.30;71.62
52745;BME280;38637;49.984;20.426;2023-03-23T04:14:57;98821.13;;;10.29;71.67
52745;BME280;38637;49.984;20.426;2023-03-23T04:17:22;98815.91;;;10.28;71.93
52745;BME280;38637;49.984;20.426;2023-03-23T04:19:47;98813.19;;;10.28;71.74
52745;BME280;38637;49.984;20.426;2023-03-23T04:22:13;98809.91;;;10.31;71.99
52745;BME280;38637;49.984;20.426;2023-03-23T04:24:38;98821.09;;;10.34;71.90
52745;BME280;38637;49.984;20.426;2023-03-23T04:27:03;98814.28;;;10.37;71.72
52745;BME280;38637;49.984;20.426;2023-03-23T04:29:30;98813.72;;;10.40;71.68
52745;BME280;38637;49.984;20.426;2023-03-23T04:31:55;98808.28;;;10.45;71.69
52745;BME280;38637;49.984;20.426;2023-03-23T04:34:21;98802.00;;;10.50;71.55
52745;BME280;38637;49.984;20.426;2023-03-23T04:36:47;98801.44;;;10.58;71.06
52745;BME280;38637;49.984;20.426;2023-03-23T04:39:13;98805.53;;;10.66;71.26
52745;BME280;38637;49.984;20.426;2023-03-23T04:41:39;98810.41;;;10.74;70.98
52745;BME280;38637;49.984;20.426;2023-03-23T04:44:05;98809.28;;;10.80;70.44
52745;BME280;38637;49.984;20.426;2023-03-23T04:46:31;98815.56;;;10.86;70.38
52745;BME280;38637;49.984;20.426;2023-03-23T04:48:58;98808.72;;;10.93;70.03
52745;BME280;38637;49.984;20.426;2023-03-23T04:51:25;98797.50;;;10.95;69.77
52745;BME280;38637;49.984;20.426;2023-03-23T04:53:52;98814.97;;;11.09;69.85
52745;BME280;38637;49.984;20.426;2023-03-23T04:56:17;98815.22;;;11.18;69.31
52745;BME280;38637;49.984;20.426;2023-03-23T04:58:44;98814.91;;;11.24;69.11
52745;BME280;38637;49.984;20.426;2023-03-23T05:01:10;98794.16;;;11.23;68.91
52745;BME280;38637;49.984;20.426;2023-03-23T05:03:39;98809.06;;;11.41;68.72
52745;BME280;38637;49.984;20.426;2023-03-23T05:06:05;98817.50;;;11.50;68.13
52745;BME280;38637;49.984;20.426;2023-03-23T05:08:30;98817.19;;;11.57;67.99
52745;BME280;38637;49.984;20.426;2023-03-23T05:10:58;98814.44;;;11.62;67.46
52745;BME280;38637;49.984;20.426;2023-03-23T05:13:24;98822.31;;;11.68;67.56
52745;BME280;38637;49.984;20.426;2023-03-23T05:15:50;98818.47;;;11.74;67.30
52745;BME280;38637;49.984;20.426;2023-03-23T05:18:15;98819.00;;;11.82;67.05
52745;BME280;38637;49.984;20.426;2023-03-23T05:20:41;98818.69;;;11.88;66.86
52745;BME280;38637;49.984;20.426;2023-03-23T05:23:07;98835.34;;;11.92;66.82
52745;BME280;38637;49.984;20.426;2023-03-23T05:25:33;98829.84;;;11.97;66.58
52745;BME280;38637;49.984;20.426;2023-03-23T05:28:02;98826.81;;;12.04;66.18
52745;BME280;38637;49.984;20.426;2023-03-23T05:30:27;98813.06;;;12.09;66.16
52745;BME280;38637;49.984;20.426;2023-03-23T05:32:53;98829.69;;;12.17;65.89
52745;BME280;38637;49.984;20.426;2023-03-23T05:35:19;98822.50;;;12.27;65.67
52745;BME280;38637;49.984;20.426;2023-03-23T05:37:45;98821.34;;;12.33;65.45
52745;BME280;38637;49.984;20.426;2023-03-23T05:40:11;98802.50;;;12.31;65.19
52745;BME280;38637;49.984;20.426;2023-03-23T05:42:38;98815.75;;;12.48;64.95
52745;BME280;38637;49.984;20.426;2023-03-23T05:45:07;98817.34;;;12.54;64.56
52745;BME280;38637;49.984;20.426;2023-03-23T05:47:34;98825.84;;;12.53;64.49
52745;BME280;38637;49.984;20.426;2023-03-23T05:49:59;98825.75;;;12.63;64.49
52745;BME280;38637;49.984;20.426;2023-03-23T05:52:26;98837.75;;;12.67;64.27
52745;BME280;38637;49.984;20.426;2023-03-23T05:54:52;98829.50;;;12.72;64.38
52745;BME280;38637;49.984;20.426;2023-03-23T05:57:18;98827.00;;;12.76;64.25
52745;BME280;38637;49.984;20.426;2023-03-23T05:59:47;98823.41;;;12.80;64.08
52745;BME280;38637;49.984;20.426;2023-03-23T06:02:12;98814.28;;;12.85;63.82
52745;BME280;38637;49.984;20.426;2023-03-23T06:04:39;98823.50;;;12.94;63.61
52745;BME280;38637;49.984;20.426;2023-03-23T06:07:06;98817.75;;;12.96;63.33
52745;BME280;38637;49.984;20.426;2023-03-23T06:09:31;98811.03;;;13.07;63.02
52745;BME280;38637;49.984;20.426;2023-03-23T06:11:57;98819.75;;;13.14;62.80
52745;BME280;38637;49.984;20.426;2023-03-23T06:14:22;98806.78;;;13.20;62.58
52745;BME280;38637;49.984;20.426;2023-03-23T06:16:48;98805.91;;;13.24;62.60
52745;BME280;38637;49.984;20.426;2023-03-23T06:19:14;98811.91;;;13.31;62.14
52745;BME280;38637;49.984;20.426;2023-03-23T06:21:41;98820.84;;;13.37;61.79
52745;BME280;38637;49.984;20.426;2023-03-23T06:24:06;98817.09;;;13.52;61.71
52745;BME280;38637;49.984;20.426;2023-03-23T06:26:34;98812.38;;;13.57;61.43
52745;BME280;38637;49.984;20.426;2023-03-23T06:29:00;98819.84;;;13.71;61.17
52745;BME280;38637;49.984;20.426;2023-03-23T06:31:26;98816.91;;;13.86;60.98
52745;BME280;38637;49.984;20.426;2023-03-23T06:33:52;98815.56;;;14.02;60.57
52745;BME280;38637;49.984;20.426;2023-03-23T06:36:18;98824.38;;;14.18;60.29
52745;BME280;38637;49.984;20.426;2023-03-23T06:38:44;98816.19;;;14.32;59.84
52745;BME280;38637;49.984;20.426;2023-03-23T06:41:09;98827.22;;;14.46;59.38
52745;BME280;38637;49.984;20.426;2023-03-23T06:43:35;98819.16;;;14.55;59.05
52745;BME280;38637;49.984;20.426;2023-03-23T06:46:03;98811.03;;;14.63;58.64
52745;BME280;38637;49.984;20.426;2023-03-23T06:48:28;98829.16;;;14.78;58.21
52745;BME280;38637;49.984;20.426;2023-03-23T06:50:53;98822.97;;;14.86;57.66
52745;BME280;38637;49.984;20.426;2023-03-23T06:53:19;98830.41;;;15.00;57.51
52745;BME280;38637;49.984;20.426;2023-03-23T06:55:46;98818.09;;;15.11;57.49
52745;BME280;38637;49.984;20.426;2023-03-23T06:58:12;98814.94;;;15.17;56.62
52745;BME280;38637;49.984;20.426;2023-03-23T07:00:37;98819.75;;;15.26;56.84
52745;BME280;38637;49.984;20.426;2023-03-23T07:03:03;98817.91;;;15.35;57.05
52745;BME280;38637;49.984;20.426;2023-03-23T07:05:29;98818.81;;;15.44;56.81
52745;BME280;38637;49.984;20.426;2023-03-23T07:07:55;98811.47;;;15.53;56.46
52745;BME280;38637;49.984;20.426;2023-03-23T07:10:20;98815.22;;;15.57;55.63
52745;BME280;38637;49.984;20.426;2023-03-23T07:12:46;98811.84;;;15.60;55.45
52745;BME280;38637;49.984;20.426;2023-03-23T07:15:11;98824.50;;;15.75;55.35
52745;BME280;38637;49.984;20.426;2023-03-23T07:17:38;98810.53;;;15.85;55.19
52745;BME280;38637;49.984;20.426;2023-03-23T07:20:04;98816.06;;;15.94;54.70
52745;BME280;38637;49.984;20.426;2023-03-23T07:22:30;98803.53;;;16.02;54.26
52745;BME280;38637;49.984;20.426;2023-03-23T07:24:55;98817.03;;;16.12;54.29
52745;BME280;38637;49.984;20.426;2023-03-23T07:27:21;98820.50;;;16.18;54.09
52745;BME280;38637;49.984;20.426;2023-03-23T07:29:46;98807.94;;;16.25;53.99
52745;BME280;38637;49.984;20.426;2023-03-23T07:32:12;98804.03;;;16.26;53.77
52745;BME280;38637;49.984;20.426;2023-03-23T07:34:37;98811.84;;;16.33;53.29
52745;BME280;38637;49.984;20.426;2023-03-23T07:37:03;98813.88;;;16.41;53.32
52745;BME280;38637;49.984;20.426;2023-03-23T07:39:28;98801.81;;;16.37;52.99
52745;BME280;38637;49.984;20.426;2023-03-23T07:41:54;98815.66;;;16.46;52.53
52745;BME280;38637;49.984;20.426;2023-03-23T07:44:20;98818.59;;;16.49;52.28
52745;BME280;38637;49.984;20.426;2023-03-23T07:46:45;98815.22;;;16.52;52.32
52745;BME280;38637;49.984;20.426;2023-03-23T07:49:11;98811.72;;;16.61;52.42
52745;BME280;38637;49.984;20.426;2023-03-23T07:51:37;98806.38;;;16.64;52.17
52745;BME280;38637;49.984;20.426;2023-03-23T07:54:04;98817.38;;;16.78;52.20
52745;BME280;38637;49.984;20.426;2023-03-23T07:56:30;98818.69;;;16.89;52.05
52745;BME280;38637;49.984;20.426;2023-03-23T07:58:55;98827.03;;;16.98;51.32
52745;BME280;38637;49.984;20.426;2023-03-23T08:01:21;98811.28;;;16.98;50.90
52745;BME280;38637;49.984;20.426;2023-03-23T08:03:48;98822.94;;;16.95;50.23
52745;BME280;38637;49.984;20.426;2023-03-23T08:06:13;98810.81;;;16.96;50.83
52745;BME280;38637;49.984;20.426;2023-03-23T08:08:39;98809.00;;;16.92;50.52
52745;BME280;38637;49.984;20.426;2023-03-23T08:11:05;98809.78;;;16.84;50.45
52745;BME280;38637;49.984;20.426;2023-03-23T08:13:31;98812.53;;;16.84;50.39
52745;BME280;38637;49.984;20.426;2023-03-23T08:15:58;98819.03;;;16.88;50.01
52745;BME280;38637;49.984;20.426;2023-03-23T08:18:23;98827.66;;;16.95;50.30
52745;BME280;38637;49.984;20.426;2023-03-23T08:20:50;98815.06;;;17.03;49.33
52745;BME280;38637;49.984;20.426;2023-03-23T08:23:15;98813.63;;;17.14;49.46
52745;BME280;38637;49.984;20.426;2023-03-23T08:25:41;98823.06;;;17.21;49.07
52745;BME280;38637;49.984;20.426;2023-03-23T08:28:08;98832.19;;;17.31;48.77
52745;BME280;38637;49.984;20.426;2023-03-23T08:30:34;98820.06;;;17.49;48.57
52745;BME280;38637;49.984;20.426;2023-03-23T08:33:01;98826.47;;;17.76;48.22
52745;BME280;38637;49.984;20.426;2023-03-23T08:35:27;98822.78;;;17.98;47.53
52745;BME280;38637;49.984;20.426;2023-03-23T08:37:53;98825.22;;;18.17;47.33
52745;BME280;38637;49.984;20.426;2023-03-23T08:40:21;98826.34;;;18.33;46.68
52745;BME280;38637;49.984;20.426;2023-03-23T08:42:48;98828.31;;;18.41;46.33
52745;BME280;38637;49.984;20.426;2023-03-23T08:45:15;98829.91;;;18.51;46.21
52745;BME280;38637;49.984;20.426;2023-03-23T08:47:42;98826.19;;;18.55;46.04
52745;BME280;38637;49.984;20.426;2023-03-23T08:50:11;98834.13;;;18.66;45.79
52745;BME280;38637;49.984;20.426;2023-03-23T08:52:37;98835.09;;;18.78;45.97
52745;BME280;38637;49.984;20.426;2023-03-23T08:55:03;98838.50;;;18.84;45.53
52745;BME280;38637;49.984;20.426;2023-03-23T08:57:28;98835.44;;;18.86;45.49
52745;BME280;38637;49.984;20.426;2023-03-23T08:59:54;98833.78;;;18.85;45.53
52745;BME280;38637;49.984;20.426;2023-03-23T09:02:25;98816.06;;;18.68;45.42
52745;BME280;38637;49.984;20.426;2023-03-23T09:04:51;98844.88;;;18.76;45.43
52745;BME280;38637;49.984;20.426;2023-03-23T09:07:17;98839.50;;;18.79;45.84
52745;BME280;38637;49.984;20.426;2023-03-23T09:09:43;98835.59;;;18.80;45.05
52745;BME280;38637;49.984;20.426;2023-03-23T09:12:09;98836.09;;;18.82;44.64
52745;BME280;38637;49.984;20.426;2023-03-23T09:14:36;98831.16;;;18.88;44.54
52745;BME280;38637;49.984;20.426;2023-03-23T09:17:02;98835.75;;;18.84;43.86
52745;BME280;38637;49.984;20.426;2023-03-23T09:19:29;98826.94;;;18.82;43.44
52745;BME280;38637;49.984;20.426;2023-03-23T09:21:54;98835.56;;;18.98;43.54
52745;BME280;38637;49.984;20.426;2023-03-23T09:24:20;98831.47;;;19.04;42.89
52745;BME280;38637;49.984;20.426;2023-03-23T09:26:46;98841.00;;;19.15;42.67
52745;BME280;38637;49.984;20.426;2023-03-23T09:29:11;98832.34;;;19.25;42.64
52745;BME280;38637;49.984;20.426;2023-03-23T09:31:38;98840.44;;;19.31;42.30
52745;BME280;38637;49.984;20.426;2023-03-23T09:34:05;98840.09;;;19.41;42.14
52745;BME280;38637;49.984;20.426;2023-03-23T09:36:31;98834.84;;;19.48;42.26
52745;BME280;38637;49.984;20.426;2023-03-23T09:38:57;98836.09;;;19.59;42.05
52745;BME280;38637;49.984;20.426;2023-03-23T09:41:36;98837.22;;;19.58;41.61
52745;BME280;38637;49.984;20.426;2023-03-23T09:46:52;98830.47;;;19.77;42.22
52745;BME280;38637;49.984;20.426;2023-03-23T09:49:33;98819.38;;;19.77;41.31
52745;BME280;38637;49.984;20.426;2023-03-23T09:52:05;98823.72;;;19.65;40.88
52745;BME280;38637;49.984;20.426;2023-03-23T09:54:34;98824.97;;;19.68;41.28
52745;BME280;38637;49.984;20.426;2023-03-23T09:57:02;98821.06;;;19.69;41.04
52745;BME280;38637;49.984;20.426;2023-03-23T09:59:42;98823.16;;;19.72;40.96
52745;BME280;38637;49.984;20.426;2023-03-23T10:02:13;98814.19;;;19.75;40.66
52745;BME280;38637;49.984;20.426;2023-03-23T10:04:48;98822.16;;;19.77;40.51
52745;BME280;38637;49.984;20.426;2023-03-23T10:07:18;98782.84;;;19.54;40.52
52745;BME280;38637;49.984;20.426;2023-03-23T10:09:47;98820.06;;;19.73;40.31
52745;BME280;38637;49.984;20.426;2023-03-23T10:12:48;98815.31;;;19.74;40.20
52745;BME280;38637;49.984;20.426;2023-03-23T10:17:50;98793.72;;;19.59;42.11
52745;BME280;38637;49.984;20.426;2023-03-23T10:23:15;98789.19;;;19.54;42.45
52745;BME280;38637;49.984;20.426;2023-03-23T10:28:43;98791.03;;;19.50;40.62
52745;BME280;38637;49.984;20.426;2023-03-23T10:31:14;98792.44;;;19.56;40.63
52745;BME280;38637;49.984;20.426;2023-03-23T10:33:44;98795.00;;;19.61;40.08
52745;BME280;38637;49.984;20.426;2023-03-23T10:36:16;98790.47;;;19.65;39.83
52745;BME280;38637;49.984;20.426;2023-03-23T10:38:56;98796.00;;;19.65;40.16
52745;BME280;38637;49.984;20.426;2023-03-23T10:41:23;98780.78;;;19.42;39.48
52745;BME280;38637;49.984;20.426;2023-03-23T10:43:48;98779.28;;;19.23;39.56
52745;BME280;38637;49.984;20.426;2023-03-23T10:46:51;98788.78;;;19.05;40.50
52745;BME280;38637;49.984;20.426;2023-03-23T10:49:23;98788.16;;;18.99;40.55
52745;BME280;38637;49.984;20.426;2023-03-23T10:54:39;98780.66;;;19.00;40.50
52745;BME280;38637;49.984;20.426;2023-03-23T10:57:38;98780.25;;;18.89;40.66
52745;BME280;38637;49.984;20.426;2023-03-23T11:00:05;98786.75;;;18.85;41.02
52745;BME280;38637;49.984;20.426;2023-03-23T11:02:42;98776.06;;;18.74;40.13
52745;BME280;38637;49.984;20.426;2023-03-23T11:05:19;98782.19;;;18.89;39.16
52745;BME280;38637;49.984;20.426;2023-03-23T11:07:54;98775.63;;;19.02;38.84
52745;BME280;38637;49.984;20.426;2023-03-23T11:10:25;98772.78;;;19.19;39.03
52745;BME280;38637;49.984;20.426;2023-03-23T11:12:51;98763.69;;;19.40;39.36
52745;BME280;38637;49.984;20.426;2023-03-23T11:15:37;98759.31;;;19.68;39.65
52745;BME280;38637;49.984;20.426;2023-03-23T11:18:06;98761.25;;;19.89;38.73
52745;BME280;38637;49.984;20.426;2023-03-23T11:20:43;98741.59;;;20.03;39.45
52745;BME280;38637;49.984;20.426;2023-03-23T11:23:21;98746.16;;;20.19;38.08
52745;BME280;38637;49.984;20.426;2023-03-23T11:25:54;98745.47;;;20.23;37.72
52745;BME280;38637;49.984;20.426;2023-03-23T11:28:20;98743.63;;;20.14;37.70
52745;BME280;38637;49.984;20.426;2023-03-23T11:30:45;98741.25;;;20.04;37.55
52745;BME280;38637;49.984;20.426;2023-03-23T11:33:11;98740.19;;;19.96;37.35
52745;BME280;38637;49.984;20.426;2023-03-23T11:35:43;98731.00;;;19.84;37.60
52745;BME280;38637;49.984;20.426;2023-03-23T11:38:17;98731.94;;;19.67;38.04
52745;BME280;38637;49.984;20.426;2023-03-23T11:40:48;98732.03;;;19.49;38.37
52745;BME280;38637;49.984;20.426;2023-03-23T11:43:19;98730.16;;;19.41;38.84
52745;BME280;38637;49.984;20.426;2023-03-23T11:46:09;98730.19;;;19.33;38.92
52745;BME280;38637;49.984;20.426;2023-03-23T11:48:47;98733.72;;;19.42;38.71
52745;BME280;38637;49.984;20.426;2023-03-23T11:56:41;98724.22;;;19.51;39.45
52745;BME280;38637;49.984;20.426;2023-03-23T11:59:14;98724.47;;;19.59;39.56
52745;BME280;38637;49.984;20.426;2023-03-23T12:01:48;98714.53;;;19.58;38.96
52745;BME280;38637;49.984;20.426;2023-03-23T12:21:20;98696.63;;;20.76;36.80
52745;BME280;38637;49.984;20.426;2023-03-23T12:26:18;98693.59;;;20.69;36.77
52745;BME280;38637;49.984;20.426;2023-03-23T12:29:38;98692.00;;;20.68;36.79
52745;BME280;38637;49.984;20.426;2023-03-23T12:36:59;98687.56;;;20.42;36.25
52745;BME280;38637;49.984;20.426;2023-03-23T12:44:50;98690.19;;;20.51;33.92
52745;BME280;38637;49.984;20.426;2023-03-23T12:47:47;98694.56;;;20.27;33.86
52745;BME280;38637;49.984;20.426;2023-03-23T12:58:30;98688.59;;;20.04;34.90
52745;BME280;38637;49.984;20.426;2023-03-23T13:01:05;98686.56;;;19.92;34.89
52745;BME280;38637;49.984;20.426;2023-03-23T13:03:46;98692.22;;;19.84;35.17
52745;BME280;38637;49.984;20.426;2023-03-23T13:06:21;98685.59;;;19.76;35.28
52745;BME280;38637;49.984;20.426;2023-03-23T13:09:10;98675.75;;;19.66;35.64
52745;BME280;38637;49.984;20.426;2023-03-23T13:11:40;98691.31;;;19.71;35.90
52745;BME280;38637;49.984;20.426;2023-03-23T13:23:14;98689.34;;;19.29;37.37
52745;BME280;38637;49.984;20.426;2023-03-23T13:25:49;98694.00;;;19.17;37.92
52745;BME280;38637;49.984;20.426;2023-03-23T13:28:20;98703.16;;;19.09;38.01
52745;BME280;38637;49.984;20.426;2023-03-23T13:33:20;98684.06;;;18.86;38.43
52745;BME280;38637;49.984;20.426;2023-03-23T13:35:48;98696.13;;;18.81;38.70
52745;BME280;38637;49.984;20.426;2023-03-23T13:38:21;98680.88;;;18.67;39.23
52745;BME280;38637;49.984;20.426;2023-03-23T13:40:49;98705.09;;;18.70;39.50
52745;BME280;38637;49.984;20.426;2023-03-23T13:43:25;98698.47;;;18.62;39.29
52745;BME280;38637;49.984;20.426;2023-03-23T13:45:52;98705.03;;;18.49;39.26
52745;BME280;38637;49.984;20.426;2023-03-23T13:48:23;98702.94;;;18.46;39.86
52745;BME280;38637;49.984;20.426;2023-03-23T13:50:58;98699.03;;;18.38;40.21
52745;BME280;38637;49.984;20.426;2023-03-23T13:53:30;98699.06;;;18.29;40.58
52745;BME280;38637;49.984;20.426;2023-03-23T13:56:17;98708.81;;;18.18;40.85
52745;BME280;38637;49.984;20.426;2023-03-23T13:58:53;98709.81;;;18.13;41.42
52745;BME280;38637;49.984;20.426;2023-03-23T14:01:39;98712.91;;;18.12;41.44
52745;BME280;38637;49.984;20.426;2023-03-23T14:04:07;98708.34;;;18.16;41.56
52745;BME280;38637;49.984;20.426;2023-03-23T14:06:36;98702.97;;;18.20;41.68
52745;BME280;38637;49.984;20.426;2023-03-23T14:09:18;98695.31;;;18.34;41.85
52745;BME280;38637;49.984;20.426;2023-03-23T14:11:51;98699.81;;;18.47;41.74
52745;BME280;38637;49.984;20.426;2023-03-23T14:14:31;98706.47;;;18.55;41.56
52745;BME280;38637;49.984;20.426;2023-03-23T14:19:48;98701.59;;;18.52;41.80
52745;BME280;38637;49.984;20.426;2023-03-23T14:22:27;98707.78;;;18.49;41.81
52745;BME280;38637;49.984;20.426;2023-03-23T14:25:00;98701.13;;;18.50;41.81
52745;BME280;38637;49.984;20.426;2023-03-23T14:27:26;98704.00;;;18.62;41.75